Time;durP1;ratioP1;P1;durP2;ratioP2;P2;SDS_P1;SDS_P2;PMS_P1;PMS_P2;Temp;Humidity;BMP_temperature;BMP_pressure;BME280_temperature;BME280_humidity;BME280_pressure;Samples;Min_cycle;Max_cycle;Signal;HPM_P1;HPM_P2
2021/12/29 00:00:00;;;;;;;31.50;13.23;;;;;;;8.29;100.00;100068.03;5022689;28;20044;-77
2021/12/29 00:02:25;;;;;;;39.35;14.35;;;;;;;8.29;100.00;100075.81;5022720;28;20101;-76
2021/12/29 00:04:50;;;;;;;30.13;12.68;;;;;;;8.28;100.00;100074.94;5022265;28;20034;-76
2021/12/29 00:07:16;;;;;;;33.45;13.00;;;;;;;8.29;100.00;100081.03;5022279;28;20392;-76
2021/12/29 00:09:41;;;;;;;32.28;12.43;;;;;;;8.29;100.00;100076.69;5022526;28;20113;-76
2021/12/29 00:12:10;;;;;;;32.28;12.90;;;;;;;8.29;100.00;100092.25;5022633;28;20025;-76
2021/12/29 00:14:36;;;;;;;27.92;12.32;;;;;;;8.29;100.00;100113.03;5022610;28;20033;-76
2021/12/29 00:17:03;;;;;;;28.67;12.07;;;;;;;8.29;100.00;100115.63;5022420;28;20037;-76
2021/12/29 00:19:28;;;;;;;24.80;11.35;;;;;;;8.30;100.00;100132.09;5022726;28;20149;-76
2021/12/29 00:21:54;;;;;;;22.17;10.52;;;;;;;8.29;100.00;100146.78;5021475;28;20137;-76
2021/12/29 00:24:19;;;;;;;24.50;10.23;;;;;;;8.29;100.00;100149.38;5022580;28;20050;-76
2021/12/29 00:26:45;;;;;;;24.70;9.82;;;;;;;8.28;100.00;100152.78;5022275;28;20085;-76
2021/12/29 00:29:10;;;;;;;21.05;9.02;;;;;;;8.29;100.00;100159.75;5022382;28;20038;-76
2021/12/29 00:31:35;;;;;;;18.67;8.35;;;;;;;8.28;100.00;100149.34;5022267;28;20024;-76
2021/12/29 00:34:01;;;;;;;22.17;8.77;;;;;;;8.28;100.00;100151.94;5022416;28;20095;-76
2021/12/29 00:36:27;;;;;;;21.27;8.20;;;;;;;8.28;100.00;100158.00;5021971;28;20029;-76
2021/12/29 00:38:53;;;;;;;18.52;7.75;;;;;;;8.29;100.00;100159.75;5022548;28;20052;-76
2021/12/29 00:41:19;;;;;;;18.88;8.23;;;;;;;8.29;100.00;100164.94;5022304;28;20042;-76
2021/12/29 00:43:45;;;;;;;17.98;7.68;;;;;;;8.29;100.00;100184.84;5054173;28;20014;-76
2021/12/29 00:46:12;;;;;;;19.40;7.93;;;;;;;8.29;100.00;100180.50;5022281;28;20032;-76
2021/12/29 00:48:41;;;;;;;17.73;7.88;;;;;;;8.29;100.00;100185.69;5022251;28;20046;-76
2021/12/29 00:51:08;;;;;;;20.52;9.00;;;;;;;8.30;100.00;100191.78;5022356;28;20216;-76
2021/12/29 00:53:34;;;;;;;18.92;8.43;;;;;;;8.29;100.00;100193.50;5022189;28;20034;-77
2021/12/29 00:56:00;;;;;;;19.27;8.75;;;;;;;8.28;100.00;100196.06;5020528;28;20056;-76
2021/12/29 00:58:26;;;;;;;19.88;8.35;;;;;;;8.29;100.00;100200.41;5054169;28;20184;-76
2021/12/29 01:00:52;;;;;;;20.70;8.63;;;;;;;8.28;100.00;100204.72;5023591;28;20283;-76
2021/12/29 01:03:17;;;;;;;21.08;8.35;;;;;;;8.28;100.00;100212.50;5024578;28;20037;-77
2021/12/29 01:05:43;;;;;;;21.35;8.45;;;;;;;8.26;100.00;100218.50;5025543;28;20033;-76
2021/12/29 01:08:10;;;;;;;20.70;8.38;;;;;;;8.27;100.00;100222.84;5024478;28;20276;-76
2021/12/29 01:10:37;;;;;;;19.85;8.90;;;;;;;8.25;100.00;100225.41;5025591;28;20049;-76
2021/12/29 01:13:03;;;;;;;21.80;9.48;;;;;;;8.27;100.00;100233.22;5025555;28;20032;-77
2021/12/29 01:15:37;;;;;;;23.42;9.18;;;;;;;8.26;100.00;100232.34;5025052;28;20046;-77
2021/12/29 01:18:05;;;;;;;27.02;10.52;;;;;;;8.26;100.00;100247.06;5024623;28;20057;-76
2021/12/29 01:20:32;;;;;;;25.25;10.63;;;;;;;8.27;100.00;100246.19;5025678;28;20180;-77
2021/12/29 01:22:59;;;;;;;28.73;11.70;;;;;;;8.26;100.00;100255.72;5057532;28;20018;-76
2021/12/29 01:25:25;;;;;;;30.48;12.07;;;;;;;8.26;100.00;100254.84;5024973;28;20017;-77
2021/12/29 01:27:50;;;;;;;32.30;12.88;;;;;;;8.25;100.00;100256.53;5025122;28;20231;-77
2021/12/29 01:30:16;;;;;;;33.45;13.02;;;;;;;8.25;100.00;100264.34;5025249;28;20088;-76
2021/12/29 01:32:42;;;;;;;31.58;13.00;;;;;;;8.25;100.00;100279.03;5025293;28;20068;-76
2021/12/29 01:35:09;;;;;;;31.55;13.18;;;;;;;8.25;100.00;100279.91;5025184;28;20283;-77
2021/12/29 01:37:35;;;;;;;32.05;12.90;;;;;;;8.26;100.00;100291.19;5025138;28;20037;-76
2021/12/29 01:40:04;;;;;;;31.92;14.27;;;;;;;8.26;100.00;100301.56;5025285;28;20042;-77
2021/12/29 01:42:29;;;;;;;33.15;13.77;;;;;;;8.25;100.00;100308.47;5056972;28;20076;-76
2021/12/29 01:44:54;;;;;;;37.13;14.20;;;;;;;8.25;100.00;100316.25;5025220;28;20025;-76
2021/12/29 01:47:26;;;;;;;30.77;14.27;;;;;;;8.24;100.00;100317.09;5024600;28;20235;-76
2021/12/29 01:49:51;;;;;;;35.35;14.63;;;;;;;8.24;100.00;100309.31;5025162;28;20272;-77
2021/12/29 01:52:21;;;;;;;36.70;14.20;;;;;;;8.26;100.00;100314.53;5024890;28;20260;-76
2021/12/29 01:54:47;;;;;;;37.67;15.05;;;;;;;8.25;100.00;100312.78;5024932;28;20017;-76
2021/12/29 01:57:12;;;;;;;32.33;14.32;;;;;;;8.24;100.00;100317.09;5024811;28;20040;-76
2021/12/29 01:59:38;;;;;;;32.65;14.27;;;;;;;8.24;100.00;100322.28;5025017;28;20032;-77
2021/12/29 02:02:04;;;;;;;37.38;15.35;;;;;;;8.25;100.00;100333.53;5024703;28;20025;-76
2021/12/29 02:04:30;;;;;;;37.05;15.48;;;;;;;8.25;100.00;100343.94;5024738;28;20050;-76
2021/12/29 02:06:56;;;;;;;37.88;15.10;;;;;;;8.22;100.00;100334.34;5024558;28;20038;-76
2021/12/29 02:09:22;;;;;;;35.58;14.80;;;;;;;8.24;100.00;100348.25;5024651;28;20232;-76
2021/12/29 02:11:47;;;;;;;35.92;14.57;;;;;;;8.24;100.00;100353.44;5023572;28;20264;-76
2021/12/29 02:14:13;;;;;;;38.40;15.57;;;;;;;8.23;100.00;100348.22;5024475;28;20200;-76
2021/12/29 02:16:39;;;;;;;37.55;15.23;;;;;;;8.24;100.00;100357.72;5024697;28;20034;-76
2021/12/29 02:19:11;;;;;;;32.88;14.73;;;;;;;8.24;100.00;100353.44;5024421;28;20286;-76
2021/12/29 02:21:39;;;;;;;35.70;14.75;;;;;;;8.23;100.00;100350.81;5024545;28;20093;-76
2021/12/29 02:26:38;;;;;;;36.00;14.43;;;;;;;8.24;100.00;100357.72;5011327;28;20046;-76
2021/12/29 02:29:06;;;;;;;34.63;15.02;;;;;;;8.22;100.00;100360.28;5024231;28;20030;-76
2021/12/29 02:31:32;;;;;;;38.20;15.43;;;;;;;8.24;100.00;100360.31;5024420;28;20053;-76
2021/12/29 02:33:58;;;;;;;34.08;15.25;;;;;;;8.23;100.00;100353.41;5023491;28;20045;-76
2021/12/29 02:36:25;;;;;;;39.33;16.05;;;;;;;8.23;100.00;100353.41;5023951;28;20080;-76
2021/12/29 02:38:54;;;;;;;40.15;16.13;;;;;;;8.22;100.00;100360.28;5024054;28;20026;-76
2021/12/29 02:41:20;;;;;;;38.60;16.10;;;;;;;8.22;100.00;100372.41;5024298;28;20096;-76
2021/12/29 02:43:46;;;;;;;43.42;16.85;;;;;;;8.22;100.00;100372.41;5023849;28;20261;-76
2021/12/29 02:46:14;;;;;;;43.72;17.27;;;;;;;8.20;100.00;100377.56;5023888;28;20068;-76
2021/12/29 02:48:52;;;;;;;39.28;16.42;;;;;;;8.20;100.00;100372.38;5023875;28;20236;-76
2021/12/29 02:51:17;;;;;;;40.15;16.80;;;;;;;8.19;100.00;100366.28;5023770;28;20026;-76
2021/12/29 02:53:43;;;;;;;48.33;18.25;;;;;;;8.19;100.00;100361.09;5023611;28;20037;-76
2021/12/29 02:56:08;;;;;;;45.60;17.40;;;;;;;8.19;100.00;100366.28;5022793;28;20013;-76
2021/12/29 02:58:34;;;;;;;47.88;16.35;;;;;;;8.17;100.00;100367.97;5023648;28;20049;-76
2021/12/29 03:01:02;;;;;;;46.88;16.85;;;;;;;8.18;100.00;100374.03;5022573;28;20014;-76
2021/12/29 03:03:30;;;;;;;43.03;16.80;;;;;;;8.17;100.00;100375.75;5023135;28;20287;-77
2021/12/29 03:05:56;;;;;;;46.08;17.17;;;;;;;8.15;100.00;100374.84;5023775;28;20069;-76
2021/12/29 03:08:22;;;;;;;44.42;17.10;;;;;;;8.16;100.00;100383.50;5023339;28;20983;-76
2021/12/29 03:10:52;;;;;;;44.10;16.73;;;;;;;8.16;100.00;100394.75;5023350;28;20284;-76
2021/12/29 03:13:19;;;;;;;43.00;16.98;;;;;;;8.15;100.00;100406.00;5023283;28;20240;-76
2021/12/29 03:15:44;;;;;;;42.13;16.55;;;;;;;8.14;100.00;100406.81;5022253;28;20269;-76
2021/12/29 03:18:09;;;;;;;43.95;16.70;;;;;;;8.14;100.00;100409.41;5023265;28;20075;-76
2021/12/29 03:20:35;;;;;;;42.05;16.30;;;;;;;8.13;100.00;100417.16;5022256;28;20135;-76
2021/12/29 03:23:00;;;;;;;39.25;15.73;;;;;;;8.14;100.00;100421.50;5022548;28;20022;-76
2021/12/29 03:25:26;;;;;;;40.67;16.33;;;;;;;8.14;99.93;100417.19;5020751;28;20022;-76
2021/12/29 03:27:58;;;;;;;45.38;16.95;;;;;;;8.11;99.98;100422.31;5022943;28;20034;-76
2021/12/29 03:30:31;;;;;;;43.08;16.38;;;;;;;8.12;100.00;100425.78;5042737;28;20029;-76
2021/12/29 03:33:03;;;;;;;44.97;16.80;;;;;;;8.12;99.76;100434.44;5022974;28;20022;-76
2021/12/29 03:35:40;;;;;;;41.67;15.90;;;;;;;8.12;100.00;100439.63;5022748;28;20104;-76
2021/12/29 03:38:09;;;;;;;42.47;16.63;;;;;;;8.12;99.99;100449.13;5022990;28;20025;-76
2021/12/29 03:40:35;;;;;;;48.73;17.93;;;;;;;8.12;99.87;100447.41;5022708;28;20083;-76
2021/12/29 03:43:01;;;;;;;46.40;16.13;;;;;;;8.10;99.73;100454.28;5023158;28;20096;-76
2021/12/29 03:45:27;;;;;;;42.88;17.38;;;;;;;8.10;99.81;100453.41;5022568;28;20256;-76
2021/12/29 03:47:52;;;;;;;46.80;16.70;;;;;;;8.10;99.83;100459.47;5023181;28;20029;-76
2021/12/29 03:50:18;;;;;;;44.63;17.45;;;;;;;8.11;99.51;100460.34;5022770;28;20136;-76
2021/12/29 03:52:43;;;;;;;41.28;17.45;;;;;;;8.12;99.84;100462.09;5021910;28;20017;-76
2021/12/29 03:55:09;;;;;;;41.08;15.88;;;;;;;8.10;99.55;100454.28;5022691;28;20022;-76
2021/12/29 03:57:35;;;;;;;45.90;15.65;;;;;;;8.10;99.75;100464.66;5022824;28;20322;-76
2021/12/29 04:00:04;;;;;;;44.28;16.23;;;;;;;8.10;99.81;100479.38;5022523;28;20024;-76
2021/12/29 04:02:29;;;;;;;43.97;16.63;;;;;;;8.09;99.53;100480.19;5022812;28;20022;-76
2021/12/29 04:04:55;;;;;;;41.92;15.75;;;;;;;8.10;99.63;100484.56;5022384;28;20195;-76
2021/12/29 04:07:20;;;;;;;42.92;16.30;;;;;;;8.09;100.00;100482.78;5022872;28;20348;-76
2021/12/29 04:09:45;;;;;;;42.38;15.85;;;;;;;8.07;100.00;100474.97;5022624;28;20030;-76
2021/12/29 04:12:11;;;;;;;46.42;16.17;;;;;;;8.07;99.89;100476.69;5021531;28;20174;-76
2021/12/29 04:14:36;;;;;;;46.05;16.80;;;;;;;8.06;99.88;100475.78;5022462;28;20026;-76
2021/12/29 04:17:09;;;;;;;45.95;16.67;;;;;;;8.05;99.93;100484.41;5022363;28;20185;-76
2021/12/29 04:22:20;;;;;;;42.95;15.55;;;;;;;8.06;99.93;100488.75;5022494;28;20307;-76
2021/12/29 04:24:46;;;;;;;43.92;15.48;;;;;;;8.05;100.00;100497.38;5022282;28;20045;-76
2021/12/29 04:27:11;;;;;;;42.92;16.38;;;;;;;8.04;99.82;100493.03;5022349;28;20025;-76
2021/12/29 04:29:37;;;;;;;41.20;15.00;;;;;;;8.06;99.59;100500.88;5022199;28;20029;-76
2021/12/29 04:32:03;;;;;;;47.03;17.00;;;;;;;8.04;99.85;100495.63;5022594;28;20034;-76
2021/12/29 04:34:28;;;;;;;43.80;17.40;;;;;;;8.05;99.80;100512.94;5023219;28;20057;-76
2021/12/29 04:36:53;;;;;;;44.20;16.83;;;;;;;8.03;99.92;100509.44;5026316;28;20032;-76
2021/12/29 04:39:18;;;;;;;46.97;17.35;;;;;;;8.04;99.71;100513.78;5025547;28;20080;-76
2021/12/29 04:41:44;;;;;;;42.65;17.10;;;;;;;8.05;99.85;100514.66;5026054;28;20050;-76
2021/12/29 04:44:09;;;;;;;42.95;16.90;;;;;;;8.04;99.78;100526.78;5026379;28;20279;-76
2021/12/29 04:46:39;;;;;;;39.53;15.98;;;;;;;8.04;99.89;100523.28;5026109;28;20034;-76
2021/12/29 04:49:10;;;;;;;50.00;15.93;;;;;;;8.04;99.54;100541.44;5026103;28;20060;-76
2021/12/29 04:51:36;;;;;;;37.92;15.68;;;;;;;8.04;99.76;100542.34;5025974;28;20025;-76
2021/12/29 04:54:06;;;;;;;47.60;16.95;;;;;;;8.03;99.77;100543.16;5026069;28;20126;-76
2021/12/29 04:56:32;;;;;;;41.58;15.98;;;;;;;8.04;99.33;100554.41;5057886;28;20026;-76
2021/12/29 04:58:58;;;;;;;42.90;16.40;;;;;;;8.03;99.50;100558.72;5051468;28;20096;-76
2021/12/29 05:01:23;;;;;;;45.50;15.60;;;;;;;8.05;99.53;100561.38;5025568;28;20241;-76
2021/12/29 05:03:49;;;;;;;43.38;17.73;;;;;;;8.05;99.53;100563.97;5025920;28;20100;-76
2021/12/29 05:08:40;;;;;;;45.13;16.30;;;;;;;8.04;99.29;100557.00;5025674;28;20300;-76
2021/12/29 05:11:08;;;;;;;42.67;16.55;;;;;;;8.01;99.25;100557.81;5025429;28;20283;-76
2021/12/29 05:13:36;;;;;;;39.50;15.77;;;;;;;8.02;99.37;100551.78;5024599;28;20138;-76
2021/12/29 05:16:03;;;;;;;40.50;15.85;;;;;;;8.02;99.38;100554.38;5025537;28;20303;-76
2021/12/29 05:18:30;;;;;;;41.47;16.00;;;;;;;8.01;99.24;100560.41;5025541;28;20261;-76
2021/12/29 05:20:57;;;;;;;36.03;14.68;;;;;;;8.02;99.36;100564.75;5057541;28;20057;-76
2021/12/29 05:23:24;;;;;;;42.15;15.43;;;;;;;8.01;99.32;100557.81;5026144;28;20248;-76
2021/12/29 05:25:50;;;;;;;41.20;15.30;;;;;;;8.01;99.08;100558.69;5025649;28;20076;-76
2021/12/29 05:28:17;;;;;;;42.22;15.20;;;;;;;8.00;99.34;100553.47;5024141;28;20017;-76
2021/12/29 05:30:44;;;;;;;42.05;15.93;;;;;;;8.00;99.36;100566.44;5023929;28;20205;-76
2021/12/29 05:33:09;;;;;;;43.20;15.70;;;;;;;8.00;99.36;100563.84;5025057;28;20018;-76
2021/12/29 05:35:35;;;;;;;40.75;15.68;;;;;;;8.00;99.43;100567.28;5025109;28;20025;-75
2021/12/29 05:38:00;;;;;;;41.95;16.42;;;;;;;8.00;99.49;100574.22;5025226;28;20026;-75
2021/12/29 05:40:27;;;;;;;38.17;15.95;;;;;;;8.00;99.29;100577.69;5024051;28;20161;-76
2021/12/29 05:42:52;;;;;;;41.67;16.10;;;;;;;7.98;99.42;100573.28;5024229;28;20233;-76
2021/12/29 05:45:18;;;;;;;41.53;15.55;;;;;;;7.97;99.53;100575.00;5025271;28;20220;-76
2021/12/29 05:47:44;;;;;;;40.25;16.42;;;;;;;7.97;99.28;100581.91;5024087;28;20235;-76
2021/12/29 05:50:13;;;;;;;40.80;15.50;;;;;;;7.97;99.43;100577.59;5025162;28;20056;-76
2021/12/29 05:52:38;;;;;;;45.70;15.73;;;;;;;7.97;99.27;100584.50;5024915;28;20088;-76
2021/12/29 05:55:05;;;;;;;39.33;14.77;;;;;;;7.96;99.21;100580.16;5025140;28;20026;-76
2021/12/29 05:57:31;;;;;;;44.15;15.95;;;;;;;7.95;99.47;100574.09;5024824;28;20025;-76
2021/12/29 05:59:56;;;;;;;41.72;15.00;;;;;;;7.96;99.50;100585.34;5025147;28;20030;-76
2021/12/29 06:02:22;;;;;;;36.13;15.07;;;;;;;7.95;99.30;100580.97;5024631;28;20060;-76
2021/12/29 06:04:47;;;;;;;36.60;14.55;;;;;;;7.95;99.48;100579.28;5024524;28;20061;-76
2021/12/29 06:07:13;;;;;;;42.28;15.52;;;;;;;7.93;99.45;100585.25;5024596;28;20121;-76
2021/12/29 06:09:39;;;;;;;41.47;15.15;;;;;;;7.94;99.36;100587.00;5024657;28;20025;-76
2021/12/29 06:12:05;;;;;;;36.28;15.43;;;;;;;7.93;99.42;100587.84;5024525;28;20044;-76
2021/12/29 06:14:30;;;;;;;37.70;15.65;;;;;;;7.93;99.25;100585.25;5023096;28;20113;-76
2021/12/29 06:16:56;;;;;;;38.90;16.02;;;;;;;7.92;98.90;100597.34;5024451;28;20295;-76
2021/12/29 06:19:21;;;;;;;45.60;15.75;;;;;;;7.92;98.93;100607.72;5024702;28;20022;-76
2021/12/29 06:21:46;;;;;;;42.20;15.73;;;;;;;7.92;99.09;100615.50;5024446;28;20022;-76
2021/12/29 06:24:12;;;;;;;39.75;14.90;;;;;;;7.91;99.15;100610.28;5024217;28;20044;-76
2021/12/29 06:26:37;;;;;;;37.70;14.57;;;;;;;7.91;99.12;100620.66;5023344;28;20261;-76
2021/12/29 06:29:03;;;;;;;34.47;14.10;;;;;;;7.89;98.93;100617.97;5056398;28;20049;-76
2021/12/29 06:31:28;;;;;;;38.40;14.45;;;;;;;7.89;99.04;100625.75;5024201;28;20029;-76
2021/12/29 06:33:53;;;;;;;36.30;13.68;;;;;;;7.89;98.74;100630.06;5024251;28;20020;-76
2021/12/29 06:36:19;;;;;;;32.22;13.50;;;;;;;7.89;98.91;100625.75;5023779;28;20162;-76
2021/12/29 06:38:44;;;;;;;33.35;13.88;;;;;;;7.88;98.84;100625.72;5024145;28;20046;-76
2021/12/29 06:41:10;;;;;;;35.10;13.55;;;;;;;7.87;98.79;100626.56;5024108;28;20240;-76
2021/12/29 06:43:35;;;;;;;38.50;14.07;;;;;;;7.86;98.67;100628.25;5022653;28;20036;-76
2021/12/29 06:46:00;;;;;;;33.63;13.80;;;;;;;7.86;98.58;100630.00;5023955;28;20269;-76
2021/12/29 06:48:25;;;;;;;37.03;13.90;;;;;;;7.85;98.67;100629.13;5022704;28;20053;-76
2021/12/29 06:50:51;;;;;;;37.42;13.23;;;;;;;7.83;98.36;100634.25;5024083;28;20029;-76
2021/12/29 06:53:16;;;;;;;33.58;14.02;;;;;;;7.83;98.46;100636.84;5023526;28;20025;-76
2021/12/29 06:55:43;;;;;;;34.47;13.68;;;;;;;7.82;98.74;100632.50;5023720;28;20048;-76
2021/12/29 06:58:10;;;;;;;30.92;13.00;;;;;;;7.82;98.50;100632.50;5023241;28;20030;-76
2021/12/29 07:00:35;;;;;;;36.05;13.75;;;;;;;7.81;98.50;100635.03;5023626;28;20026;-76
2021/12/29 07:03:01;;;;;;;34.28;13.50;;;;;;;7.82;98.36;100636.78;5023762;28;20064;-75
2021/12/29 07:05:26;;;;;;;33.60;13.30;;;;;;;7.81;98.37;100627.25;5022427;28;20018;-76
2021/12/29 07:07:54;;;;;;;33.65;13.52;;;;;;;7.81;98.09;100635.91;5023483;28;20050;-76
2021/12/29 07:10:20;;;;;;;34.35;14.05;;;;;;;7.82;98.27;100641.97;5053231;28;20040;-76
2021/12/29 07:12:45;;;;;;;31.13;13.60;;;;;;;7.82;98.26;100644.56;5023278;28;20030;-75
2021/12/29 07:15:10;;;;;;;32.55;14.40;;;;;;;7.82;98.31;100644.56;5023640;28;20092;-76
2021/12/29 07:17:35;;;;;;;31.67;14.15;;;;;;;7.82;98.43;100654.94;5023460;28;20055;-76
2021/12/29 07:20:01;;;;;;;28.55;13.88;;;;;;;7.82;98.56;100667.91;5048811;28;20265;-76
2021/12/29 07:22:26;;;;;;;35.17;13.07;;;;;;;7.82;98.56;100670.50;5055119;28;20076;-76
2021/12/29 07:24:52;;;;;;;30.58;13.40;;;;;;;7.82;98.20;100670.50;5023126;28;20022;-76
2021/12/29 07:27:17;;;;;;;40.47;14.70;;;;;;;7.80;98.33;100673.03;5023216;28;20080;-76
2021/12/29 07:29:42;;;;;;;34.75;14.77;;;;;;;7.79;98.32;100675.59;5023087;28;20045;-76
2021/12/29 07:32:08;;;;;;;35.28;13.75;;;;;;;7.80;98.59;100682.56;5055429;28;20014;-76
2021/12/29 07:34:34;;;;;;;29.10;13.23;;;;;;;7.80;98.51;100683.41;5022836;28;20053;-75
2021/12/29 07:37:00;;;;;;;33.78;13.65;;;;;;;7.80;98.70;100687.72;5023269;28;20030;-76
2021/12/29 07:39:25;;;;;;;37.58;14.70;;;;;;;7.79;98.49;100691.16;5022707;28;20204;-75
2021/12/29 07:41:51;;;;;;;39.33;14.45;;;;;;;7.79;98.37;100692.06;5023131;28;20097;-76
2021/12/29 07:44:17;;;;;;;30.58;13.82;;;;;;;7.79;98.51;100694.66;5022331;28;20287;-76
2021/12/29 07:46:45;;;;;;;29.35;13.77;;;;;;;7.78;98.55;100692.88;5023020;28;20037;-76
2021/12/29 07:49:11;;;;;;;35.42;13.75;;;;;;;7.78;98.59;100698.06;5021536;28;20045;-76
2021/12/29 07:51:37;;;;;;;33.42;14.48;;;;;;;7.79;98.44;100693.75;5054858;28;20018;-76
2021/12/29 07:54:03;;;;;;;36.40;16.08;;;;;;;7.78;98.40;100687.69;5022405;28;20030;-76
2021/12/29 07:56:28;;;;;;;29.48;13.93;;;;;;;7.77;98.47;100693.69;5022850;28;20045;-76
2021/12/29 07:58:54;;;;;;;33.72;13.45;;;;;;;7.76;98.51;100684.19;5054575;28;20037;-74
2021/12/29 08:01:19;;;;;;;33.58;12.45;;;;;;;7.78;98.68;100686.81;5022734;28;21005;-75
2021/12/29 08:03:44;;;;;;;28.98;12.88;;;;;;;7.77;98.30;100687.66;5022113;28;20060;-75
2021/12/29 08:06:10;;;;;;;30.88;13.20;;;;;;;7.78;98.34;100698.06;5022711;28;20047;-77
2021/12/29 08:08:35;;;;;;;30.95;13.77;;;;;;;7.78;98.25;100689.41;5021266;28;20025;-76
2021/12/29 08:11:01;;;;;;;32.17;13.40;;;;;;;7.77;98.20;100685.06;5011467;28;20112;-76
2021/12/29 08:13:26;;;;;;;34.35;14.57;;;;;;;7.76;98.36;100697.16;5015668;28;20030;-76
2021/12/29 08:15:51;;;;;;;31.60;13.45;;;;;;;7.78;98.54;100707.56;5020582;28;20045;-76
2021/12/29 08:18:17;;;;;;;33.10;13.85;;;;;;;7.78;98.08;100702.38;5019742;28;20033;-76
2021/12/29 08:20:42;;;;;;;28.08;13.43;;;;;;;7.76;98.20;100694.56;5020765;28;20054;-76
2021/12/29 08:23:10;;;;;;;31.13;14.30;;;;;;;7.75;98.42;100690.19;5020875;28;20195;-76
2021/12/29 08:25:36;;;;;;;29.15;12.30;;;;;;;7.76;98.38;100693.66;5021094;28;20081;-76
2021/12/29 08:28:02;;;;;;;33.85;14.35;;;;;;;7.77;98.42;100695.44;5020714;28;20022;-76
2021/12/29 08:30:29;;;;;;;32.40;14.18;;;;;;;7.77;98.16;100700.63;5021729;28;20321;-76
2021/12/29 08:32:54;;;;;;;32.88;13.60;;;;;;;7.77;98.38;100704.06;5054469;28;20040;-76
2021/12/29 08:35:20;;;;;;;30.80;13.93;;;;;;;7.76;98.30;100702.34;5022347;28;20026;-76
2021/12/29 08:37:45;;;;;;;30.42;13.48;;;;;;;7.78;98.39;100710.16;5022051;28;20236;-76
2021/12/29 08:40:11;;;;;;;31.20;13.98;;;;;;;7.78;98.10;100704.97;5021529;28;20033;-77
2021/12/29 08:42:38;;;;;;;33.53;13.68;;;;;;;7.77;98.19;100701.47;5022061;28;20037;-76
2021/12/29 08:45:06;;;;;;;32.13;14.00;;;;;;;7.78;98.34;100700.66;5021366;28;20084;-75
2021/12/29 08:47:31;;;;;;;30.40;14.50;;;;;;;7.79;98.06;100701.53;5018263;28;20033;-65
2021/12/29 08:49:57;;;;;;;31.35;15.18;;;;;;;7.79;98.32;100697.25;5020726;28;20088;-65
2021/12/29 08:52:22;;;;;;;33.58;14.18;;;;;;;7.78;98.28;100703.25;5019736;28;20038;-65
2021/12/29 08:54:48;;;;;;;31.05;14.15;;;;;;;7.79;98.26;100706.72;5020219;28;20046;-65
2021/12/29 08:57:13;;;;;;;33.92;14.75;;;;;;;7.80;98.21;100705.91;5020998;28;20069;-65
2021/12/29 08:59:38;;;;;;;32.78;14.73;;;;;;;7.79;97.94;100702.44;5020722;28;20014;-65
2021/12/29 09:02:04;;;;;;;30.35;13.98;;;;;;;7.80;97.80;100698.97;5019443;28;20261;-65
2021/12/29 09:04:29;;;;;;;37.15;15.60;;;;;;;7.80;97.95;100709.34;5021383;28;20062;-65
2021/12/29 09:06:55;;;;;;;34.33;15.38;;;;;;;7.81;97.87;100716.31;5022299;28;20033;-66
2021/12/29 09:09:21;;;;;;;36.50;15.43;;;;;;;7.82;97.70;100710.31;5054042;28;20037;-65
2021/12/29 09:11:46;;;;;;;36.17;15.98;;;;;;;7.83;97.33;100696.50;5022019;28;20025;-66
2021/12/29 09:14:11;;;;;;;35.72;15.20;;;;;;;7.85;97.15;100704.34;5021822;28;20216;-65
2021/12/29 09:16:37;;;;;;;35.47;15.60;;;;;;;7.87;97.09;100709.59;5022235;28;20069;-66
2021/12/29 09:19:03;;;;;;;32.90;14.10;;;;;;;7.86;96.55;100703.50;5021628;28;20030;-65
2021/12/29 09:21:31;;;;;;;33.47;14.40;;;;;;;7.88;96.80;100698.34;5022948;28;20057;-66
2021/12/29 09:23:56;;;;;;;47.45;16.17;;;;;;;7.90;96.64;100699.28;5025779;28;20966;-66
2021/12/29 09:26:22;;;;;;;32.80;15.35;;;;;;;7.92;96.37;100702.81;5025576;28;20085;-66
2021/12/29 09:28:49;;;;;;;32.17;15.02;;;;;;;7.92;95.86;100692.44;5025334;28;20032;-66
2021/12/29 09:31:16;;;;;;;34.72;15.65;;;;;;;7.96;96.04;100691.69;5025298;28;20192;-65
2021/12/29 09:33:43;;;;;;;34.97;14.43;;;;;;;7.98;96.23;100682.25;5025347;28;20032;-66
2021/12/29 09:36:09;;;;;;;34.03;15.05;;;;;;;8.01;96.23;100687.56;5025257;28;20030;-65
2021/12/29 09:38:36;;;;;;;33.35;14.88;;;;;;;8.03;96.25;100683.28;5025249;28;20100;-66
2021/12/29 09:41:07;;;;;;;32.88;14.80;;;;;;;8.06;96.17;100691.16;5025022;28;20050;-65
2021/12/29 09:43:33;;;;;;;34.60;15.07;;;;;;;8.08;96.01;100694.69;5025138;28;20033;-65
2021/12/29 09:45:58;;;;;;;35.67;14.02;;;;;;;8.12;95.88;100695.66;5025082;28;20053;-66
2021/12/29 09:48:23;;;;;;;32.47;14.45;;;;;;;8.13;95.84;100702.63;5025004;28;20048;-65
2021/12/29 09:50:50;;;;;;;31.90;14.10;;;;;;;8.12;95.43;100693.94;5024868;28;20096;-66
2021/12/29 09:53:15;;;;;;;28.85;12.93;;;;;;;8.11;95.49;100684.41;5025023;28;20026;-65
2021/12/29 09:55:44;;;;;;;28.08;13.07;;;;;;;8.11;95.37;100679.22;5025028;28;20041;-65
2021/12/29 09:58:09;;;;;;;31.77;13.65;;;;;;;8.11;95.39;100674.03;5024712;28;20021;-66
2021/12/29 10:00:39;;;;;;;26.80;11.68;;;;;;;8.10;95.51;100680.03;5024651;28;20248;-65
2021/12/29 10:03:07;;;;;;;27.48;11.63;;;;;;;8.11;95.47;100687.00;5024809;28;20260;-65
2021/12/29 10:05:34;;;;;;;30.08;12.18;;;;;;;8.13;95.48;100685.31;5024753;28;20064;-66
2021/12/29 10:08:13;;;;;;;29.50;12.55;;;;;;;8.14;95.21;100681.91;5025036;28;20018;-65
2021/12/29 10:10:44;;;;;;;29.52;11.95;;;;;;;8.16;95.28;100693.19;5024250;28;20200;-65
2021/12/29 10:13:10;;;;;;;28.08;11.30;;;;;;;8.19;95.40;100692.41;5024727;28;20026;-65
2021/12/29 10:15:45;;;;;;;33.03;12.75;;;;;;;8.22;95.35;100689.03;5024593;28;20093;-65
2021/12/29 10:18:12;;;;;;;26.58;11.52;;;;;;;8.27;95.37;100690.03;5024381;28;20076;-65
2021/12/29 10:20:52;;;;;;;26.83;11.07;;;;;;;8.30;95.31;100687.56;5024356;28;20085;-65
2021/12/29 10:23:26;;;;;;;30.15;11.43;;;;;;;8.32;95.51;100688.47;5024199;28;20076;-66
2021/12/29 10:25:53;;;;;;;28.42;11.68;;;;;;;8.32;95.45;100689.34;5024452;28;20269;-65
2021/12/29 10:28:28;;;;;;;26.77;11.45;;;;;;;8.34;95.29;100672.13;5024500;28;20030;-65
2021/12/29 10:30:58;;;;;;;25.17;10.52;;;;;;;8.35;95.31;100662.63;5024396;28;20021;-65
2021/12/29 10:33:23;;;;;;;27.17;10.98;;;;;;;8.36;95.45;100664.38;5052742;28;20045;-65
2021/12/29 10:35:49;;;;;;;23.98;10.27;;;;;;;8.36;95.23;100654.00;5024153;28;20018;-65
2021/12/29 10:38:21;;;;;;;22.60;10.13;;;;;;;8.36;95.19;100649.69;5024219;28;20026;-66
2021/12/29 10:40:48;;;;;;;22.50;9.13;;;;;;;8.35;95.29;100660.03;5024238;28;20028;-65
2021/12/29 10:43:14;;;;;;;22.52;9.00;;;;;;;8.34;95.04;100651.34;5023982;28;20053;-65
2021/12/29 10:45:43;;;;;;;23.73;9.48;;;;;;;8.34;95.37;100660.84;5023944;28;20026;-65
2021/12/29 10:48:19;;;;;;;31.37;10.00;;;;;;;8.35;95.25;100655.69;5023937;28;20018;-65
2021/12/29 10:51:00;;;;;;;22.70;9.50;;;;;;;8.38;95.44;100656.63;5023794;28;20305;-65
2021/12/29 10:53:27;;;;;;;26.48;9.80;;;;;;;8.38;95.50;100649.72;5023625;28;20025;-65
2021/12/29 10:55:53;;;;;;;22.13;9.55;;;;;;;8.37;95.22;100645.34;5023357;28;20026;-66
2021/12/29 10:58:22;;;;;;;25.67;9.43;;;;;;;8.38;95.54;100652.31;5023952;28;20083;-66
2021/12/29 11:00:59;;;;;;;19.55;8.38;;;;;;;8.40;95.39;100665.34;5023475;28;20089;-65
2021/12/29 11:03:26;;;;;;;22.33;8.50;;;;;;;8.36;95.14;100665.25;5023434;28;20034;-65
2021/12/29 11:05:58;;;;;;;23.85;8.60;;;;;;;8.36;95.29;100675.63;5023100;28;20037;-66
2021/12/29 11:08:30;;;;;;;22.85;8.82;;;;;;;8.38;95.20;100687.78;5023952;28;20061;-65
2021/12/29 11:11:03;;;;;;;22.75;9.38;;;;;;;8.38;95.51;100675.69;5023339;28;20026;-66
2021/12/29 11:13:30;;;;;;;23.60;8.43;;;;;;;8.39;95.54;100671.38;5023240;28;20017;-65
2021/12/29 11:15:57;;;;;;;22.13;8.02;;;;;;;8.37;95.35;100666.13;5022273;28;20037;-65
2021/12/29 11:18:23;;;;;;;23.70;8.50;;;;;;;8.38;95.45;100670.50;5023612;28;20029;-66
2021/12/29 11:20:54;;;;;;;25.33;8.38;;;;;;;8.39;95.73;100680.03;5023532;28;20179;-65